Time,TemperatureF,DewpointF,PressureIn,WindDirection,WindDirectionDegrees,WindSpeedMPH,WindSpeedGustMPH,Humidity,HourlyPrecipIn,Conditions,Clouds,dailyrainin,SoftwareType,DateUTC
2013-08-16 00:09:00,72.4,63.0,29.91,SW,231,1.0,7.0,73,0.00,,,0.00,weatherlink.com 1.10,2013-08-16 07:09:00,
2013-08-16 00:24:00,72.2,63.0,29.91,WSW,251,1.0,8.0,73,0.00,,,0.00,weatherlink.com 1.10,2013-08-16 07:24:00,
2013-08-16 00:39:00,72.0,63.0,29.91,WNW,296,4.0,7.0,74,0.00,,,0.00,weatherlink.com 1.10,2013-08-16 07:39:00,
2013-08-16 00:54:00,71.6,63.0,29.92,WSW,257,3.0,8.0,75,0.00,,,0.00,weatherlink.com 1.10,2013-08-16 07:54:00,
2013-08-16 01:10:00,71.6,63.0,29.92,SSW,212,3.0,9.0,75,0.00,,,0.00,weatherlink.com 1.10,2013-08-16 08:10:00,
2013-08-16 01:25:00,71.5,63.0,29.92,West,280,4.0,8.0,75,0.00,,,0.00,weatherlink.com 1.10,2013-08-16 08:25:00,
2013-08-16 01:40:00,71.6,63.0,29.92,West,271,4.0,8.0,74,0.00,,,0.00,weatherlink.com 1.10,2013-08-16 08:40:00,
2013-08-16 01:55:00,71.5,63.0,29.92,SW,214,1.0,7.0,74,0.00,,,0.00,weatherlink.com 1.10,2013-08-16 08:55:00,
2013-08-16 02:10:00,71.2,63.0,29.92,West,280,3.0,6.0,75,0.00,,,0.00,weatherlink.com 1.10,2013-08-16 09:10:00,
2013-08-16 02:25:00,70.8,63.0,29.92,West,268,2.0,6.0,76,0.00,,,0.00,weatherlink.com 1.10,2013-08-16 09:25:00,
2013-08-16 02:40:00,70.8,63.0,29.92,WNW,289,2.0,8.0,76,0.00,,,0.00,weatherlink.com 1.10,2013-08-16 09:40:00,
2013-08-16 02:55:00,70.9,63.0,29.92,NNE,22,3.0,7.0,76,0.00,,,0.00,weatherlink.com 1.10,2013-08-16 09:55:00,
2013-08-16 03:10:00,69.8,62.0,29.92,NE,41,1.0,3.0,77,0.00,,,0.00,weatherlink.com 1.10,2013-08-16 10:10:00,
2013-08-16 03:25:00,69.7,63.0,29.92,West,266,2.0,2.0,79,0.00,,,0.00,weatherlink.com 1.10,2013-08-16 10:25:00,
2013-08-16 03:40:00,69.2,63.0,29.92,SW,222,3.0,6.0,80,0.00,,,0.00,weatherlink.com 1.10,2013-08-16 10:40:00,
2013-08-16 03:55:00,69.2,64.0,29.92,WNW,297,2.0,5.0,84,0.00,,,0.00,weatherlink.com 1.10,2013-08-16 10:55:00,
2013-08-16 04:10:00,67.9,63.0,29.92,South,190,0.0,4.0,85,0.00,,,0.00,weatherlink.com 1.10,2013-08-16 11:10:00,
2013-08-16 04:25:00,68.4,64.0,29.92,SW,225,5.0,5.0,85,0.00,,,0.00,weatherlink.com 1.10,2013-08-16 11:25:00,
2013-08-16 04:40:00,68.5,64.0,29.92,West,281,0.0,5.0,85,0.00,,,0.00,weatherlink.com 1.10,2013-08-16 11:40:00,
2013-08-16 04:55:00,67.8,63.0,29.92,NE,48,1.0,5.0,85,0.00,,,0.00,weatherlink.com 1.10,2013-08-16 11:55:00,
2013-08-16 05:10:00,67.3,63.0,29.91,NE,43,1.0,4.0,87,0.00,,,0.00,weatherlink.com 1.10,2013-08-16 12:10:00,
2013-08-16 05:25:00,67.3,63.0,29.92,NE,50,0.0,6.0,85,0.00,,,0.00,weatherlink.com 1.10,2013-08-16 12:25:00,
2013-08-16 05:40:00,66.7,62.0,29.92,NE,46,3.0,5.0,86,0.00,,,0.00,weatherlink.com 1.10,2013-08-16 12:40:00,
2013-08-16 05:55:00,66.1,62.0,29.93,NE,46,5.0,5.0,87,0.00,,,0.00,weatherlink.com 1.10,2013-08-16 12:55:00,
2013-08-16 06:10:00,66.7,63.0,29.92,NE,49,3.0,7.0,88,0.00,,,0.00,weatherlink.com 1.10,2013-08-16 13:10:00,
2013-08-16 06:25:00,66.4,63.0,29.93,ENE,71,2.0,2.0,89,0.01,,,0.01,weatherlink.com 1.10,2013-08-16 13:25:00,
2013-08-16 06:40:00,65.7,63.0,29.93,NE,38,0.0,6.0,90,0.01,,,0.01,weatherlink.com 1.10,2013-08-16 13:40:00,
2013-08-16 06:55:00,65.6,63.0,29.93,NNE,21,0.0,5.0,91,0.02,,,0.02,weatherlink.com 1.10,2013-08-16 13:55:00,
2013-08-16 07:10:00,65.7,63.0,29.93,NE,41,2.0,5.0,91,0.03,,,0.03,weatherlink.com 1.10,2013-08-16 14:10:00,
2013-08-16 07:25:00,65.7,63.0,29.93,NE,43,2.0,5.0,92,0.04,,,0.05,weatherlink.com 1.10,2013-08-16 14:25:00,
2013-08-16 07:40:00,65.8,64.0,29.94,SE,124,3.0,5.0,92,0.04,,,0.05,weatherlink.com 1.10,2013-08-16 14:40:00,
2013-08-16 07:55:00,66.0,63.0,29.95,NNE,15,0.0,4.0,89,0.05,,,0.07,weatherlink.com 1.10,2013-08-16 14:55:00,
2013-08-16 08:10:00,66.4,64.0,29.95,NE,52,2.0,4.0,92,0.04,,,0.08,weatherlink.com 1.10,2013-08-16 15:10:00,
2013-08-16 08:25:00,66.3,64.0,29.95,East,83,1.0,4.0,92,0.04,,,0.09,weatherlink.com 1.10,2013-08-16 15:25:00,
2013-08-16 08:40:00,66.5,64.0,29.96,ENE,65,2.0,2.0,92,0.04,,,0.09,weatherlink.com 1.10,2013-08-16 15:40:00,
2013-08-16 08:55:00,67.0,65.0,29.96,ENE,65,0.0,1.0,93,0.02,,,0.09,weatherlink.com 1.10,2013-08-16 15:55:00,
2013-08-16 09:10:00,67.6,66.0,29.96,ENE,67,0.0,1.0,93,0.00,,,0.09,weatherlink.com 1.10,2013-08-16 16:10:00,
2013-08-16 09:25:00,67.5,65.0,29.96,ENE,67,0.0,0.0,90,0.00,,,0.09,weatherlink.com 1.10,2013-08-16 16:25:00,
2013-08-16 09:40:00,68.4,66.0,29.96,SSW,205,1.0,2.0,91,0.00,,,0.09,weatherlink.com 1.10,2013-08-16 16:40:00,
2013-08-16 09:55:00,67.9,65.0,29.96,West,275,0.0,5.0,90,0.00,,,0.09,weatherlink.com 1.10,2013-08-16 16:55:00,
2013-08-16 10:10:00,67.9,65.0,29.96,West,263,1.0,5.0,90,0.00,,,0.09,weatherlink.com 1.10,2013-08-16 17:10:00,
2013-08-16 10:25:00,67.6,65.0,29.96,WSW,248,2.0,4.0,90,0.00,,,0.09,weatherlink.com 1.10,2013-08-16 17:25:00,
2013-08-16 10:40:00,67.3,64.0,29.96,NNW,334,2.0,4.0,90,0.00,,,0.09,weatherlink.com 1.10,2013-08-16 17:40:00,
2013-08-16 10:55:00,67.5,65.0,29.96,WSW,249,1.0,3.0,90,0.00,,,0.09,weatherlink.com 1.10,2013-08-16 17:55:00,
2013-08-16 11:10:00,67.9,65.0,29.97,WNW,294,1.0,4.0,90,0.00,,,0.09,weatherlink.com 1.10,2013-08-16 18:10:00,
2013-08-16 11:25:00,68.1,65.0,29.96,WNW,297,2.0,6.0,89,0.00,,,0.09,weatherlink.com 1.10,2013-08-16 18:25:00,
2013-08-16 11:40:00,69.4,65.0,29.96,SW,234,2.0,5.0,87,0.00,,,0.09,weatherlink.com 1.10,2013-08-16 18:40:00,
2013-08-16 11:55:00,69.1,65.0,29.96,SW,235,2.0,5.0,87,0.00,,,0.09,weatherlink.com 1.10,2013-08-16 18:55:00,
2013-08-16 12:10:00,71.1,67.0,29.95,SW,234,1.0,4.0,87,0.00,,,0.09,weatherlink.com 1.10,2013-08-16 19:10:00,
2013-08-16 12:26:00,73.1,67.0,29.95,SW,220,2.0,4.0,81,0.00,,,0.09,weatherlink.com 1.10,2013-08-16 19:26:00,
2013-08-16 12:41:00,72.3,67.0,29.95,SW,220,1.0,2.0,83,0.00,,,0.09,weatherlink.com 1.10,2013-08-16 19:41:00,
2013-08-16 12:56:00,72.1,65.0,29.95,SW,220,0.0,2.0,78,0.00,,,0.09,weatherlink.com 1.10,2013-08-16 19:56:00,
2013-08-16 13:11:00,73.2,64.0,29.94,South,186,3.0,3.0,74,0.00,,,0.09,weatherlink.com 1.10,2013-08-16 20:11:00,
2013-08-16 13:26:00,74.4,66.0,29.94,SSW,192,0.0,3.0,74,0.00,,,0.09,weatherlink.com 1.10,2013-08-16 20:26:00,
2013-08-16 13:41:00,74.4,67.0,29.93,SSW,192,1.0,2.0,77,0.00,,,0.09,weatherlink.com 1.10,2013-08-16 20:41:00,
2013-08-16 13:56:00,75.8,66.0,29.93,SSW,197,0.0,2.0,72,0.00,,,0.09,weatherlink.com 1.10,2013-08-16 20:56:00,
2013-08-16 14:11:00,75.9,67.0,29.92,SSW,192,0.0,3.0,73,0.00,,,0.09,weatherlink.com 1.10,2013-08-16 21:11:00,
2013-08-16 14:26:00,76.4,67.0,29.92,SSE,147,0.0,3.0,73,0.00,,,0.09,weatherlink.com 1.10,2013-08-16 21:26:00,
2013-08-16 14:41:00,77.0,67.0,29.92,SSE,147,0.0,2.0,72,0.00,,,0.09,weatherlink.com 1.10,2013-08-16 21:41:00,
2013-08-16 14:56:00,77.5,67.0,29.91,NE,48,0.0,4.0,70,0.00,,,0.09,weatherlink.com 1.10,2013-08-16 21:56:00,
2013-08-16 15:11:00,78.5,68.0,29.91,NE,52,2.0,2.0,69,0.00,,,0.09,weatherlink.com 1.10,2013-08-16 22:11:00,
2013-08-16 15:26:00,79.6,66.0,29.90,WNW,282,2.0,6.0,64,0.00,,,0.09,weatherlink.com 1.10,2013-08-16 22:26:00,
2013-08-16 15:41:00,80.6,66.0,29.90,NW,313,4.0,10.0,61,0.00,,,0.09,weatherlink.com 1.10,2013-08-16 22:41:00,
2013-08-16 15:56:00,80.9,66.0,29.90,SW,234,7.0,13.0,60,0.00,,,0.09,weatherlink.com 1.10,2013-08-16 22:56:00,
2013-08-16 16:11:00,80.9,65.0,29.90,WSW,246,7.0,10.0,59,0.00,,,0.09,weatherlink.com 1.10,2013-08-16 23:11:00,
2013-08-16 16:26:00,81.0,65.0,29.90,WSW,253,1.0,13.0,59,0.00,,,0.09,weatherlink.com 1.10,2013-08-16 23:26:00,
2013-08-16 16:41:00,81.0,65.0,29.90,WNW,288,6.0,12.0,58,0.00,,,0.09,weatherlink.com 1.10,2013-08-16 23:41:00,
2013-08-16 16:56:00,81.2,65.0,29.89,WNW,282,2.0,10.0,59,0.00,,,0.09,weatherlink.com 1.10,2013-08-16 23:56:00,
2013-08-16 17:11:00,81.0,65.0,29.90,SW,225,3.0,9.0,58,0.00,,,0.09,weatherlink.com 1.10,2013-08-17 00:11:00,
2013-08-16 17:26:00,80.2,65.0,29.91,WSW,253,5.0,11.0,60,0.00,,,0.09,weatherlink.com 1.10,2013-08-17 00:26:00,
2013-08-16 17:41:00,79.4,65.0,29.91,SW,230,4.0,10.0,61,0.00,,,0.09,weatherlink.com 1.10,2013-08-17 00:41:00,
2013-08-16 17:56:00,78.9,64.0,29.91,NW,308,5.0,11.0,61,0.00,,,0.09,weatherlink.com 1.10,2013-08-17 00:56:00,
2013-08-16 18:11:00,78.6,64.0,29.91,NW,304,2.0,10.0,62,0.00,,,0.09,weatherlink.com 1.10,2013-08-17 01:11:00,
2013-08-16 18:26:00,78.8,65.0,29.91,West,270,6.0,11.0,62,0.00,,,0.09,weatherlink.com 1.10,2013-08-17 01:26:00,
2013-08-16 18:41:00,79.3,64.0,29.90,West,263,5.0,11.0,60,0.00,,,0.09,weatherlink.com 1.10,2013-08-17 01:41:00,
2013-08-16 18:56:00,78.8,64.0,29.90,WSW,256,2.0,10.0,61,0.00,,,0.09,weatherlink.com 1.10,2013-08-17 01:56:00,
2013-08-16 19:11:00,78.8,64.0,29.91,WNW,292,3.0,10.0,61,0.00,,,0.09,weatherlink.com 1.10,2013-08-17 02:11:00,
2013-08-16 19:26:00,78.6,65.0,29.91,WNW,288,4.0,6.0,63,0.00,,,0.09,weatherlink.com 1.10,2013-08-17 02:26:00,
2013-08-16 19:41:00,78.5,63.0,29.91,WNW,292,4.0,6.0,60,0.00,,,0.09,weatherlink.com 1.10,2013-08-17 02:41:00,
2013-08-16 19:56:00,77.8,63.0,29.92,WNW,282,1.0,5.0,61,0.00,,,0.09,weatherlink.com 1.10,2013-08-17 02:56:00,
2013-08-16 20:11:00,77.0,63.0,29.93,West,280,2.0,5.0,63,0.00,,,0.09,weatherlink.com 1.10,2013-08-17 03:11:00,
2013-08-16 20:26:00,76.7,63.0,29.93,NNW,328,1.0,5.0,62,0.00,,,0.09,weatherlink.com 1.10,2013-08-17 03:26:00,
2013-08-16 20:41:00,76.1,63.0,29.94,West,278,0.0,5.0,63,0.00,,,0.09,weatherlink.com 1.10,2013-08-17 03:41:00,
2013-08-16 20:56:00,75.1,63.0,29.94,WNW,293,3.0,5.0,67,0.00,,,0.09,weatherlink.com 1.10,2013-08-17 03:56:00,
2013-08-16 21:11:00,74.6,63.0,29.94,NW,325,0.0,3.0,67,0.00,,,0.09,weatherlink.com 1.10,2013-08-17 04:11:00,
2013-08-16 21:26:00,74.5,63.0,29.95,WNW,296,0.0,3.0,67,0.00,,,0.09,weatherlink.com 1.10,2013-08-17 04:26:00,
2013-08-16 21:41:00,72.9,63.0,29.95,NNW,346,2.0,6.0,71,0.00,,,0.09,weatherlink.com 1.10,2013-08-17 04:41:00,
2013-08-16 21:56:00,72.9,63.0,29.95,WNW,300,0.0,5.0,71,0.00,,,0.09,weatherlink.com 1.10,2013-08-17 04:56:00,
2013-08-16 22:11:00,72.0,63.0,29.95,WNW,289,0.0,4.0,73,0.00,,,0.09,weatherlink.com 1.10,2013-08-17 05:11:00,
2013-08-16 22:26:00,72.5,63.0,29.95,WNW,292,1.0,4.0,72,0.00,,,0.09,weatherlink.com 1.10,2013-08-17 05:26:00,
2013-08-16 22:41:00,71.9,63.0,29.95,WNW,289,0.0,3.0,73,0.00,,,0.09,weatherlink.com 1.10,2013-08-17 05:41:00,
2013-08-16 22:56:00,71.8,63.0,29.95,WNW,297,2.0,3.0,73,0.00,,,0.09,weatherlink.com 1.10,2013-08-17 05:56:00,
2013-08-16 23:11:00,72.1,63.0,29.95,WNW,293,1.0,5.0,74,0.00,,,0.09,weatherlink.com 1.10,2013-08-17 06:11:00,
2013-08-16 23:26:00,71.0,63.0,29.95,West,271,2.0,4.0,75,0.00,,,0.09,weatherlink.com 1.10,2013-08-17 06:26:00,
2013-08-16 23:41:00,71.3,63.0,29.95,West,279,3.0,5.0,75,0.00,,,0.09,weatherlink.com 1.10,2013-08-17 06:41:00,
2013-08-16 23:56:00,71.9,63.0,29.96,West,270,3.0,9.0,73,0.00,,,0.09,weatherlink.com 1.10,2013-08-17 06:56:00,